sensor_id;sensor_type;location;lat;lon;timestamp;temperature;humidity
666;DHT22;315;48.738;9.126;2023-05-07T00:01:16;15.10;99.90
666;DHT22;315;48.738;9.126;2023-05-07T00:03:42;15.00;99.90
666;DHT22;315;48.738;9.126;2023-05-07T00:06:07;14.90;99.90
666;DHT22;315;48.738;9.126;2023-05-07T00:08:33;14.90;99.90
666;DHT22;315;48.738;9.126;2023-05-07T00:10:58;14.90;99.90
666;DHT22;315;48.738;9.126;2023-05-07T00:13:24;14.90;99.90
666;DHT22;315;48.738;9.126;2023-05-07T00:15:49;14.90;99.90
666;DHT22;315;48.738;9.126;2023-05-07T00:18:15;14.80;99.90
666;DHT22;315;48.738;9.126;2023-05-07T00:20:41;14.80;99.90
666;DHT22;315;48.738;9.126;2023-05-07T00:23:06;14.70;99.90
666;DHT22;315;48.738;9.126;2023-05-07T00:25:32;14.60;99.90
666;DHT22;315;48.738;9.126;2023-05-07T00:27:57;14.60;99.90
666;DHT22;315;48.738;9.126;2023-05-07T00:30:27;14.50;99.90
666;DHT22;315;48.738;9.126;2023-05-07T00:32:53;14.50;99.90
666;DHT22;315;48.738;9.126;2023-05-07T00:35:19;14.50;99.90
666;DHT22;315;48.738;9.126;2023-05-07T00:37:45;14.70;99.90
666;DHT22;315;48.738;9.126;2023-05-07T00:40:10;14.80;99.90
666;DHT22;315;48.738;9.126;2023-05-07T00:42:36;14.80;99.90
666;DHT22;315;48.738;9.126;2023-05-07T00:45:02;14.70;99.90
666;DHT22;315;48.738;9.126;2023-05-07T00:47:28;14.60;99.90
666;DHT22;315;48.738;9.126;2023-05-07T00:49:54;14.50;99.90
666;DHT22;315;48.738;9.126;2023-05-07T00:52:20;14.40;99.90
666;DHT22;315;48.738;9.126;2023-05-07T00:54:46;14.30;99.90
666;DHT22;315;48.738;9.126;2023-05-07T00:57:12;14.30;99.90
666;DHT22;315;48.738;9.126;2023-05-07T00:59:37;14.40;99.90
666;DHT22;315;48.738;9.126;2023-05-07T01:02:03;14.40;99.90
666;DHT22;315;48.738;9.126;2023-05-07T01:04:29;14.40;99.90
666;DHT22;315;48.738;9.126;2023-05-07T01:06:55;14.40;99.90
666;DHT22;315;48.738;9.126;2023-05-07T01:09:25;14.30;99.90
666;DHT22;315;48.738;9.126;2023-05-07T01:11:52;14.30;99.90
666;DHT22;315;48.738;9.126;2023-05-07T01:14:19;14.30;99.90
666;DHT22;315;48.738;9.126;2023-05-07T01:16:46;14.30;99.90
666;DHT22;315;48.738;9.126;2023-05-07T01:19:12;14.30;99.90
666;DHT22;315;48.738;9.126;2023-05-07T01:21:45;14.20;99.90
666;DHT22;315;48.738;9.126;2023-05-07T01:24:12;14.10;99.90
666;DHT22;315;48.738;9.126;2023-05-07T01:26:39;14.00;99.90
666;DHT22;315;48.738;9.126;2023-05-07T01:29:05;14.00;99.90
666;DHT22;315;48.738;9.126;2023-05-07T01:31:30;14.00;99.90
666;DHT22;315;48.738;9.126;2023-05-07T01:33:59;14.00;99.90
666;DHT22;315;48.738;9.126;2023-05-07T01:36:26;14.10;99.90
666;DHT22;315;48.738;9.126;2023-05-07T01:38:53;14.20;99.90
666;DHT22;315;48.738;9.126;2023-05-07T01:41:19;14.20;99.90
666;DHT22;315;48.738;9.126;2023-05-07T01:43:46;14.20;99.90
666;DHT22;315;48.738;9.126;2023-05-07T01:46:12;14.20;99.90
666;DHT22;315;48.738;9.126;2023-05-07T01:48:38;14.10;99.90
666;DHT22;315;48.738;9.126;2023-05-07T01:51:05;14.10;99.90
666;DHT22;315;48.738;9.126;2023-05-07T01:53:40;14.00;99.90
666;DHT22;315;48.738;9.126;2023-05-07T01:56:06;14.00;99.90
666;DHT22;315;48.738;9.126;2023-05-07T01:58:32;13.90;99.90
666;DHT22;315;48.738;9.126;2023-05-07T02:00:57;13.90;99.90
666;DHT22;315;48.738;9.126;2023-05-07T02:03:23;13.90;99.90
666;DHT22;315;48.738;9.126;2023-05-07T02:05:48;13.90;99.90
666;DHT22;315;48.738;9.126;2023-05-07T02:08:14;13.90;99.90
666;DHT22;315;48.738;9.126;2023-05-07T02:10:39;13.90;99.90
666;DHT22;315;48.738;9.126;2023-05-07T02:13:05;13.90;99.90
666;DHT22;315;48.738;9.126;2023-05-07T02:15:30;14.00;99.90
666;DHT22;315;48.738;9.126;2023-05-07T02:18:06;14.00;99.90
666;DHT22;315;48.738;9.126;2023-05-07T02:20:32;13.90;99.90
666;DHT22;315;48.738;9.126;2023-05-07T02:22:57;13.90;99.90
666;DHT22;315;48.738;9.126;2023-05-07T02:25:23;14.00;99.90
666;DHT22;315;48.738;9.126;2023-05-07T02:27:49;14.10;99.90
666;DHT22;315;48.738;9.126;2023-05-07T02:30:14;14.10;99.90
666;DHT22;315;48.738;9.126;2023-05-07T02:32:40;14.10;99.90
666;DHT22;315;48.738;9.126;2023-05-07T02:35:06;14.00;99.90
666;DHT22;315;48.738;9.126;2023-05-07T02:37:31;13.90;99.90
666;DHT22;315;48.738;9.126;2023-05-07T02:39:57;13.80;99.90
666;DHT22;315;48.738;9.126;2023-05-07T02:42:22;13.70;99.90
666;DHT22;315;48.738;9.126;2023-05-07T02:44:48;13.70;99.90
666;DHT22;315;48.738;9.126;2023-05-07T02:47:14;13.70;99.90
666;DHT22;315;48.738;9.126;2023-05-07T02:49:40;13.60;99.90
666;DHT22;315;48.738;9.126;2023-05-07T02:52:06;13.60;99.90
666;DHT22;315;48.738;9.126;2023-05-07T02:54:31;13.60;99.90
666;DHT22;315;48.738;9.126;2023-05-07T02:56:57;13.60;99.90
666;DHT22;315;48.738;9.126;2023-05-07T02:59:23;13.60;99.90
666;DHT22;315;48.738;9.126;2023-05-07T03:01:49;13.60;99.90
666;DHT22;315;48.738;9.126;2023-05-07T03:04:15;13.60;99.90
666;DHT22;315;48.738;9.126;2023-05-07T03:06:40;13.60;99.90
666;DHT22;315;48.738;9.126;2023-05-07T03:09:06;13.60;99.90
666;DHT22;315;48.738;9.126;2023-05-07T03:11:32;13.50;99.90
666;DHT22;315;48.738;9.126;2023-05-07T03:13:57;13.50;99.90
666;DHT22;315;48.738;9.126;2023-05-07T03:16:23;13.50;99.90
666;DHT22;315;48.738;9.126;2023-05-07T03:18:48;13.50;99.90
666;DHT22;315;48.738;9.126;2023-05-07T03:21:14;13.40;99.90
666;DHT22;315;48.738;9.126;2023-05-07T03:23:40;13.30;99.90
666;DHT22;315;48.738;9.126;2023-05-07T03:26:05;13.30;99.90
666;DHT22;315;48.738;9.126;2023-05-07T03:28:31;13.20;99.90
666;DHT22;315;48.738;9.126;2023-05-07T03:30:56;13.10;99.90
666;DHT22;315;48.738;9.126;2023-05-07T03:33:22;13.10;99.90
666;DHT22;315;48.738;9.126;2023-05-07T03:35:47;13.10;99.90
666;DHT22;315;48.738;9.126;2023-05-07T03:38:13;13.20;99.90
666;DHT22;315;48.738;9.126;2023-05-07T03:40:38;13.20;99.90
666;DHT22;315;48.738;9.126;2023-05-07T03:43:04;13.20;99.90
666;DHT22;315;48.738;9.126;2023-05-07T03:45:29;13.30;99.90
666;DHT22;315;48.738;9.126;2023-05-07T03:47:55;13.30;99.90
666;DHT22;315;48.738;9.126;2023-05-07T03:50:20;13.20;99.90
666;DHT22;315;48.738;9.126;2023-05-07T03:52:46;13.10;99.90
666;DHT22;315;48.738;9.126;2023-05-07T03:55:11;12.90;99.90
666;DHT22;315;48.738;9.126;2023-05-07T03:57:37;12.90;99.90
666;DHT22;315;48.738;9.126;2023-05-07T04:00:03;12.80;99.90
666;DHT22;315;48.738;9.126;2023-05-07T04:02:29;12.70;99.90
666;DHT22;315;48.738;9.126;2023-05-07T04:04:55;12.70;99.90
666;DHT22;315;48.738;9.126;2023-05-07T04:07:21;12.70;99.90
666;DHT22;315;48.738;9.126;2023-05-07T04:09:47;12.80;99.90
666;DHT22;315;48.738;9.126;2023-05-07T04:12:12;12.80;99.90
666;DHT22;315;48.738;9.126;2023-05-07T04:14:37;12.80;99.90
666;DHT22;315;48.738;9.126;2023-05-07T04:17:03;12.90;99.90
666;DHT22;315;48.738;9.126;2023-05-07T04:19:29;13.00;99.90
666;DHT22;315;48.738;9.126;2023-05-07T04:21:55;13.00;99.90
666;DHT22;315;48.738;9.126;2023-05-07T04:24:20;13.00;99.90
666;DHT22;315;48.738;9.126;2023-05-07T04:26:46;12.90;99.90
666;DHT22;315;48.738;9.126;2023-05-07T04:29:11;12.90;99.90
666;DHT22;315;48.738;9.126;2023-05-07T04:31:37;12.80;99.90
666;DHT22;315;48.738;9.126;2023-05-07T04:34:05;12.80;99.90
666;DHT22;315;48.738;9.126;2023-05-07T04:36:30;12.80;99.90
666;DHT22;315;48.738;9.126;2023-05-07T04:38:58;12.90;99.90
666;DHT22;315;48.738;9.126;2023-05-07T04:41:23;13.00;99.90
666;DHT22;315;48.738;9.126;2023-05-07T04:43:49;13.10;99.90
666;DHT22;315;48.738;9.126;2023-05-07T04:46:14;13.20;99.90
666;DHT22;315;48.738;9.126;2023-05-07T04:48:40;13.20;99.90
666;DHT22;315;48.738;9.126;2023-05-07T04:51:06;13.20;99.90
666;DHT22;315;48.738;9.126;2023-05-07T04:53:31;13.20;99.90
666;DHT22;315;48.738;9.126;2023-05-07T04:55:57;13.10;99.90
666;DHT22;315;48.738;9.126;2023-05-07T04:58:23;13.10;99.90
666;DHT22;315;48.738;9.126;2023-05-07T05:00:49;13.10;99.90
666;DHT22;315;48.738;9.126;2023-05-07T05:03:15;13.10;99.90
666;DHT22;315;48.738;9.126;2023-05-07T05:05:40;13.10;99.90
666;DHT22;315;48.738;9.126;2023-05-07T05:08:06;13.20;99.90
666;DHT22;315;48.738;9.126;2023-05-07T05:10:31;13.20;99.90
666;DHT22;315;48.738;9.126;2023-05-07T05:12:57;13.20;99.90
666;DHT22;315;48.738;9.126;2023-05-07T05:15:23;13.40;99.90
666;DHT22;315;48.738;9.126;2023-05-07T05:17:48;13.50;99.90
666;DHT22;315;48.738;9.126;2023-05-07T05:20:14;13.70;99.90
666;DHT22;315;48.738;9.126;2023-05-07T05:22:40;13.80;99.90
666;DHT22;315;48.738;9.126;2023-05-07T05:25:06;13.80;99.90
666;DHT22;315;48.738;9.126;2023-05-07T05:27:31;13.90;99.90
666;DHT22;315;48.738;9.126;2023-05-07T05:29:57;14.00;99.90
666;DHT22;315;48.738;9.126;2023-05-07T05:32:22;14.30;99.90
666;DHT22;315;48.738;9.126;2023-05-07T05:34:48;14.60;99.90
666;DHT22;315;48.738;9.126;2023-05-07T05:37:13;14.90;99.90
666;DHT22;315;48.738;9.126;2023-05-07T05:39:39;15.20;99.90
666;DHT22;315;48.738;9.126;2023-05-07T05:42:04;15.50;99.90
666;DHT22;315;48.738;9.126;2023-05-07T05:44:30;15.70;99.90
666;DHT22;315;48.738;9.126;2023-05-07T05:46:55;16.00;99.90
666;DHT22;315;48.738;9.126;2023-05-07T05:49:22;16.20;99.90
666;DHT22;315;48.738;9.126;2023-05-07T05:51:48;16.40;99.90
666;DHT22;315;48.738;9.126;2023-05-07T05:54:14;16.60;99.90
666;DHT22;315;48.738;9.126;2023-05-07T05:56:41;16.90;99.90
666;DHT22;315;48.738;9.126;2023-05-07T05:59:06;17.00;99.90
666;DHT22;315;48.738;9.126;2023-05-07T06:01:32;17.10;99.90
666;DHT22;315;48.738;9.126;2023-05-07T06:03:58;17.10;99.90
666;DHT22;315;48.738;9.126;2023-05-07T06:06:23;17.20;99.90
666;DHT22;315;48.738;9.126;2023-05-07T06:08:49;17.50;99.90
666;DHT22;315;48.738;9.126;2023-05-07T06:11:14;17.60;99.90
666;DHT22;315;48.738;9.126;2023-05-07T06:13:40;17.50;99.90
666;DHT22;315;48.738;9.126;2023-05-07T06:16:06;17.30;99.90
666;DHT22;315;48.738;9.126;2023-05-07T06:18:31;17.30;99.90
666;DHT22;315;48.738;9.126;2023-05-07T06:20:57;17.20;99.90
666;DHT22;315;48.738;9.126;2023-05-07T06:23:22;17.30;99.90
666;DHT22;315;48.738;9.126;2023-05-07T06:25:49;17.10;99.90
666;DHT22;315;48.738;9.126;2023-05-07T06:28:15;17.10;99.90
666;DHT22;315;48.738;9.126;2023-05-07T06:30:41;17.30;99.90
666;DHT22;315;48.738;9.126;2023-05-07T06:33:06;17.50;99.90
666;DHT22;315;48.738;9.126;2023-05-07T06:35:32;17.50;99.90
666;DHT22;315;48.738;9.126;2023-05-07T06:37:57;17.20;99.90
666;DHT22;315;48.738;9.126;2023-05-07T06:40:23;17.00;99.90
666;DHT22;315;48.738;9.126;2023-05-07T06:42:48;16.80;99.90
666;DHT22;315;48.738;9.126;2023-05-07T06:45:14;16.70;99.90
666;DHT22;315;48.738;9.126;2023-05-07T06:47:40;16.60;99.90
666;DHT22;315;48.738;9.126;2023-05-07T06:50:06;16.60;99.90
666;DHT22;315;48.738;9.126;2023-05-07T06:52:31;16.80;99.90
666;DHT22;315;48.738;9.126;2023-05-07T06:54:57;17.10;99.90
666;DHT22;315;48.738;9.126;2023-05-07T06:57:23;17.50;99.90
666;DHT22;315;48.738;9.126;2023-05-07T06:59:49;17.80;99.90
666;DHT22;315;48.738;9.126;2023-05-07T07:02:14;18.20;99.90
666;DHT22;315;48.738;9.126;2023-05-07T07:04:40;18.60;99.90
666;DHT22;315;48.738;9.126;2023-05-07T07:07:06;18.90;99.90
666;DHT22;315;48.738;9.126;2023-05-07T07:09:31;19.10;99.90
666;DHT22;315;48.738;9.126;2023-05-07T07:11:57;19.20;99.90
666;DHT22;315;48.738;9.126;2023-05-07T07:14:22;19.00;99.90
666;DHT22;315;48.738;9.126;2023-05-07T07:16:48;18.80;99.90
666;DHT22;315;48.738;9.126;2023-05-07T07:19:13;19.00;99.90
666;DHT22;315;48.738;9.126;2023-05-07T07:21:41;19.30;99.90
666;DHT22;315;48.738;9.126;2023-05-07T07:24:06;19.30;99.90
666;DHT22;315;48.738;9.126;2023-05-07T07:26:32;19.80;99.90
666;DHT22;315;48.738;9.126;2023-05-07T07:28:57;19.90;99.90
666;DHT22;315;48.738;9.126;2023-05-07T07:31:23;19.90;99.90
666;DHT22;315;48.738;9.126;2023-05-07T07:33:48;19.90;99.90
666;DHT22;315;48.738;9.126;2023-05-07T07:36:15;20.10;99.90
666;DHT22;315;48.738;9.126;2023-05-07T07:38:41;20.30;99.90
666;DHT22;315;48.738;9.126;2023-05-07T07:41:08;20.30;99.90
666;DHT22;315;48.738;9.126;2023-05-07T07:43:34;20.20;99.90
666;DHT22;315;48.738;9.126;2023-05-07T07:45:59;20.80;99.90
666;DHT22;315;48.738;9.126;2023-05-07T07:48:25;21.10;99.90
666;DHT22;315;48.738;9.126;2023-05-07T07:50:50;21.10;99.90
666;DHT22;315;48.738;9.126;2023-05-07T07:53:16;20.90;99.90
666;DHT22;315;48.738;9.126;2023-05-07T07:55:42;20.80;99.90
666;DHT22;315;48.738;9.126;2023-05-07T07:58:08;20.90;99.90
666;DHT22;315;48.738;9.126;2023-05-07T08:00:33;20.80;99.90
666;DHT22;315;48.738;9.126;2023-05-07T08:02:59;20.90;99.90
666;DHT22;315;48.738;9.126;2023-05-07T08:05:24;21.20;99.90
666;DHT22;315;48.738;9.126;2023-05-07T08:07:50;21.60;99.90
666;DHT22;315;48.738;9.126;2023-05-07T08:10:19;21.50;99.90
666;DHT22;315;48.738;9.126;2023-05-07T08:12:48;21.30;99.90
666;DHT22;315;48.738;9.126;2023-05-07T08:15:14;21.20;99.90
666;DHT22;315;48.738;9.126;2023-05-07T08:17:40;21.10;99.90
666;DHT22;315;48.738;9.126;2023-05-07T08:20:06;21.10;99.90
666;DHT22;315;48.738;9.126;2023-05-07T08:22:32;21.20;99.90
666;DHT22;315;48.738;9.126;2023-05-07T08:24:57;21.50;99.90
666;DHT22;315;48.738;9.126;2023-05-07T08:27:23;22.00;99.90
666;DHT22;315;48.738;9.126;2023-05-07T08:29:48;22.00;99.90
666;DHT22;315;48.738;9.126;2023-05-07T08:32:14;22.50;99.90
666;DHT22;315;48.738;9.126;2023-05-07T08:34:40;22.70;99.90
666;DHT22;315;48.738;9.126;2023-05-07T08:37:05;22.60;99.90
666;DHT22;315;48.738;9.126;2023-05-07T08:39:31;22.40;99.90
666;DHT22;315;48.738;9.126;2023-05-07T08:41:57;22.30;99.90
666;DHT22;315;48.738;9.126;2023-05-07T08:44:26;22.10;99.90
666;DHT22;315;48.738;9.126;2023-05-07T08:46:56;22.10;99.90
666;DHT22;315;48.738;9.126;2023-05-07T08:49:23;22.30;99.90
666;DHT22;315;48.738;9.126;2023-05-07T08:51:49;22.40;99.90
666;DHT22;315;48.738;9.126;2023-05-07T08:54:18;22.40;99.90
666;DHT22;315;48.738;9.126;2023-05-07T08:56:45;22.60;99.90
666;DHT22;315;48.738;9.126;2023-05-07T08:59:11;22.70;99.90
666;DHT22;315;48.738;9.126;2023-05-07T09:01:36;23.10;99.90
666;DHT22;315;48.738;9.126;2023-05-07T09:04:02;23.50;99.90
666;DHT22;315;48.738;9.126;2023-05-07T09:06:28;23.80;99.90
666;DHT22;315;48.738;9.126;2023-05-07T09:08:54;23.50;99.90
666;DHT22;315;48.738;9.126;2023-05-07T09:11:21;23.60;99.90
666;DHT22;315;48.738;9.126;2023-05-07T09:13:47;24.00;99.90
666;DHT22;315;48.738;9.126;2023-05-07T09:16:13;24.40;99.90
666;DHT22;315;48.738;9.126;2023-05-07T09:18:43;24.80;99.90
666;DHT22;315;48.738;9.126;2023-05-07T09:21:15;24.60;99.90
666;DHT22;315;48.738;9.126;2023-05-07T09:23:41;24.70;99.90
666;DHT22;315;48.738;9.126;2023-05-07T09:26:07;25.50;99.90
666;DHT22;315;48.738;9.126;2023-05-07T09:28:41;26.10;98.90
666;DHT22;315;48.738;9.126;2023-05-07T09:31:08;26.20;97.60
666;DHT22;315;48.738;9.126;2023-05-07T09:33:34;26.20;96.50
666;DHT22;315;48.738;9.126;2023-05-07T09:36:05;26.30;95.80
666;DHT22;315;48.738;9.126;2023-05-07T09:38:34;26.70;94.70
666;DHT22;315;48.738;9.126;2023-05-07T09:41:09;27.80;91.80
666;DHT22;315;48.738;9.126;2023-05-07T09:43:37;27.80;89.30
666;DHT22;315;48.738;9.126;2023-05-07T09:46:13;27.80;90.90
666;DHT22;315;48.738;9.126;2023-05-07T09:48:41;27.00;90.80
666;DHT22;315;48.738;9.126;2023-05-07T09:53:47;27.80;88.10
666;DHT22;315;48.738;9.126;2023-05-07T09:56:14;27.70;85.30
666;DHT22;315;48.738;9.126;2023-05-07T09:58:41;27.80;89.00
666;DHT22;315;48.738;9.126;2023-05-07T10:01:07;29.40;81.40
666;DHT22;315;48.738;9.126;2023-05-07T10:03:33;29.70;80.00
666;DHT22;315;48.738;9.126;2023-05-07T10:06:00;30.90;74.30
666;DHT22;315;48.738;9.126;2023-05-07T10:08:26;31.60;69.30
666;DHT22;315;48.738;9.126;2023-05-07T10:10:52;32.00;65.70
666;DHT22;315;48.738;9.126;2023-05-07T10:13:19;31.80;63.60
666;DHT22;315;48.738;9.126;2023-05-07T10:15:44;30.00;66.90
666;DHT22;315;48.738;9.126;2023-05-07T10:18:11;29.80;67.70
666;DHT22;315;48.738;9.126;2023-05-07T10:20:37;30.10;64.80
666;DHT22;315;48.738;9.126;2023-05-07T10:23:04;31.10;63.00
666;DHT22;315;48.738;9.126;2023-05-07T10:25:32;31.50;62.10
666;DHT22;315;48.738;9.126;2023-05-07T10:28:05;31.80;61.30
666;DHT22;315;48.738;9.126;2023-05-07T10:33:05;31.60;59.10
666;DHT22;315;48.738;9.126;2023-05-07T10:35:38;32.60;57.30
666;DHT22;315;48.738;9.126;2023-05-07T10:38:06;34.30;53.80
666;DHT22;315;48.738;9.126;2023-05-07T10:40:32;32.20;55.80
666;DHT22;315;48.738;9.126;2023-05-07T10:43:02;32.00;55.80
666;DHT22;315;48.738;9.126;2023-05-07T10:45:30;33.30;54.80
666;DHT22;315;48.738;9.126;2023-05-07T10:48:22;33.80;52.90
666;DHT22;315;48.738;9.126;2023-05-07T10:50:48;34.40;52.00
666;DHT22;315;48.738;9.126;2023-05-07T10:55:42;35.70;49.00
666;DHT22;315;48.738;9.126;2023-05-07T11:00:48;36.00;46.50
666;DHT22;315;48.738;9.126;2023-05-07T11:03:14;36.20;45.50
666;DHT22;315;48.738;9.126;2023-05-07T11:05:41;36.80;44.10
666;DHT22;315;48.738;9.126;2023-05-07T11:08:07;37.70;42.80
666;DHT22;315;48.738;9.126;2023-05-07T11:10:49;37.50;41.30
666;DHT22;315;48.738;9.126;2023-05-07T11:13:15;37.30;41.50
666;DHT22;315;48.738;9.126;2023-05-07T11:15:46;37.40;41.00
666;DHT22;315;48.738;9.126;2023-05-07T11:18:17;37.50;40.70
666;DHT22;315;48.738;9.126;2023-05-07T11:20:53;37.40;39.10
666;DHT22;315;48.738;9.126;2023-05-07T11:26:03;33.70;41.90
666;DHT22;315;48.738;9.126;2023-05-07T11:28:30;31.20;44.40
666;DHT22;315;48.738;9.126;2023-05-07T11:30:57;30.00;46.60
666;DHT22;315;48.738;9.126;2023-05-07T11:33:23;29.80;47.70
666;DHT22;315;48.738;9.126;2023-05-07T11:35:52;29.60;48.20
666;DHT22;315;48.738;9.126;2023-05-07T11:38:18;29.00;50.10
666;DHT22;315;48.738;9.126;2023-05-07T11:40:55;28.70;48.50
666;DHT22;315;48.738;9.126;2023-05-07T11:43:21;28.20;50.40
666;DHT22;315;48.738;9.126;2023-05-07T11:45:47;28.10;51.00
666;DHT22;315;48.738;9.126;2023-05-07T11:48:13;28.00;51.90
666;DHT22;315;48.738;9.126;2023-05-07T11:50:53;27.80;52.10
666;DHT22;315;48.738;9.126;2023-05-07T11:53:20;27.60;52.30
666;DHT22;315;48.738;9.126;2023-05-07T11:55:46;27.10;52.90
666;DHT22;315;48.738;9.126;2023-05-07T11:58:18;26.50;54.50
666;DHT22;315;48.738;9.126;2023-05-07T12:00:52;26.00;56.50
666;DHT22;315;48.738;9.126;2023-05-07T12:03:18;25.80;68.20
666;DHT22;315;48.738;9.126;2023-05-07T12:05:48;25.70;76.30
666;DHT22;315;48.738;9.126;2023-05-07T12:08:18;25.10;90.40
666;DHT22;315;48.738;9.126;2023-05-07T12:10:44;24.30;94.60
666;DHT22;315;48.738;9.126;2023-05-07T12:13:21;23.60;99.40
666;DHT22;315;48.738;9.126;2023-05-07T12:15:46;23.10;99.90
666;DHT22;315;48.738;9.126;2023-05-07T12:18:15;22.70;99.90
666;DHT22;315;48.738;9.126;2023-05-07T12:20:41;22.80;99.90
666;DHT22;315;48.738;9.126;2023-05-07T12:23:06;22.50;99.90
666;DHT22;315;48.738;9.126;2023-05-07T12:25:34;22.30;99.90
666;DHT22;315;48.738;9.126;2023-05-07T12:28:01;22.00;99.90
666;DHT22;315;48.738;9.126;2023-05-07T12:30:27;21.90;99.90
666;DHT22;315;48.738;9.126;2023-05-07T12:32:53;21.30;99.90
666;DHT22;315;48.738;9.126;2023-05-07T12:35:29;20.80;99.90
666;DHT22;315;48.738;9.126;2023-05-07T12:37:56;20.20;99.90
666;DHT22;315;48.738;9.126;2023-05-07T12:40:22;19.80;99.90
666;DHT22;315;48.738;9.126;2023-05-07T12:42:53;19.80;99.90
666;DHT22;315;48.738;9.126;2023-05-07T12:45:20;19.70;99.90
666;DHT22;315;48.738;9.126;2023-05-07T12:47:46;19.30;99.90
666;DHT22;315;48.738;9.126;2023-05-07T12:50:13;19.00;99.90
666;DHT22;315;48.738;9.126;2023-05-07T12:52:39;18.80;99.90
666;DHT22;315;48.738;9.126;2023-05-07T12:55:07;18.60;99.90
666;DHT22;315;48.738;9.126;2023-05-07T12:57:39;18.30;99.90
666;DHT22;315;48.738;9.126;2023-05-07T13:00:06;18.00;99.90
666;DHT22;315;48.738;9.126;2023-05-07T13:02:33;17.60;99.90
666;DHT22;315;48.738;9.126;2023-05-07T13:04:59;17.50;99.90
666;DHT22;315;48.738;9.126;2023-05-07T13:07:25;17.50;99.90
666;DHT22;315;48.738;9.126;2023-05-07T13:09:51;17.40;99.90
666;DHT22;315;48.738;9.126;2023-05-07T13:12:16;17.40;99.90
666;DHT22;315;48.738;9.126;2023-05-07T13:14:42;17.30;99.90
666;DHT22;315;48.738;9.126;2023-05-07T13:17:07;17.30;99.90
666;DHT22;315;48.738;9.126;2023-05-07T13:19:33;17.20;99.90
666;DHT22;315;48.738;9.126;2023-05-07T13:21:58;17.20;99.90
666;DHT22;315;48.738;9.126;2023-05-07T13:24:23;17.30;99.90
666;DHT22;315;48.738;9.126;2023-05-07T13:26:49;17.40;99.90
666;DHT22;315;48.738;9.126;2023-05-07T13:29:15;17.50;99.90
666;DHT22;315;48.738;9.126;2023-05-07T13:31:41;17.50;99.90
666;DHT22;315;48.738;9.126;2023-05-07T13:34:09;17.40;99.90
666;DHT22;315;48.738;9.126;2023-05-07T13:36:35;17.40;99.90
666;DHT22;315;48.738;9.126;2023-05-07T13:39:03;17.30;99.90
666;DHT22;315;48.738;9.126;2023-05-07T13:41:28;17.30;99.90
666;DHT22;315;48.738;9.126;2023-05-07T13:43:55;17.30;99.90
666;DHT22;315;48.738;9.126;2023-05-07T13:46:21;17.20;99.90
666;DHT22;315;48.738;9.126;2023-05-07T13:48:47;17.20;99.90
666;DHT22;315;48.738;9.126;2023-05-07T13:51:13;17.10;99.90
666;DHT22;315;48.738;9.126;2023-05-07T13:53:38;17.00;99.90
666;DHT22;315;48.738;9.126;2023-05-07T13:56:04;16.90;99.90
666;DHT22;315;48.738;9.126;2023-05-07T13:58:30;16.70;99.90
666;DHT22;315;48.738;9.126;2023-05-07T14:00:55;16.50;99.90
666;DHT22;315;48.738;9.126;2023-05-07T14:03:21;16.30;99.90
666;DHT22;315;48.738;9.126;2023-05-07T14:05:47;16.00;99.90
666;DHT22;315;48.738;9.126;2023-05-07T14:08:12;15.90;99.90
666;DHT22;315;48.738;9.126;2023-05-07T14:10:39;15.70;99.90
666;DHT22;315;48.738;9.126;2023-05-07T14:13:05;15.60;99.90
666;DHT22;315;48.738;9.126;2023-05-07T14:15:31;15.50;99.90
666;DHT22;315;48.738;9.126;2023-05-07T14:17:58;15.50;99.90
666;DHT22;315;48.738;9.126;2023-05-07T14:20:24;15.50;99.90
666;DHT22;315;48.738;9.126;2023-05-07T14:22:50;15.50;99.90
666;DHT22;315;48.738;9.126;2023-05-07T14:25:16;15.50;99.90
666;DHT22;315;48.738;9.126;2023-05-07T14:27:41;15.50;99.90
666;DHT22;315;48.738;9.126;2023-05-07T14:30:07;15.30;99.90
666;DHT22;315;48.738;9.126;2023-05-07T14:32:33;15.30;99.90
666;DHT22;315;48.738;9.126;2023-05-07T14:34:59;15.30;99.90
666;DHT22;315;48.738;9.126;2023-05-07T14:37:25;15.30;99.90
666;DHT22;315;48.738;9.126;2023-05-07T14:39:50;15.30;99.90
666;DHT22;315;48.738;9.126;2023-05-07T14:42:16;15.30;99.90
666;DHT22;315;48.738;9.126;2023-05-07T14:44:42;15.30;99.90
666;DHT22;315;48.738;9.126;2023-05-07T14:47:07;15.20;99.90
666;DHT22;315;48.738;9.126;2023-05-07T14:49:33;15.20;99.90
666;DHT22;315;48.738;9.126;2023-05-07T14:51:59;15.20;99.90
666;DHT22;315;48.738;9.126;2023-05-07T14:54:25;15.30;99.90
666;DHT22;315;48.738;9.126;2023-05-07T14:56:51;15.30;99.90
666;DHT22;315;48.738;9.126;2023-05-07T14:59:17;15.30;99.90
666;DHT22;315;48.738;9.126;2023-05-07T15:01:46;15.40;99.90
666;DHT22;315;48.738;9.126;2023-05-07T15:04:12;15.50;99.90
666;DHT22;315;48.738;9.126;2023-05-07T15:06:37;15.70;99.90
666;DHT22;315;48.738;9.126;2023-05-07T15:09:03;15.70;99.90
666;DHT22;315;48.738;9.126;2023-05-07T15:11:29;15.80;99.90
666;DHT22;315;48.738;9.126;2023-05-07T15:13:55;15.80;99.90
666;DHT22;315;48.738;9.126;2023-05-07T15:16:20;15.90;99.90
666;DHT22;315;48.738;9.126;2023-05-07T15:18:46;15.90;99.90
666;DHT22;315;48.738;9.126;2023-05-07T15:21:12;15.90;99.90
666;DHT22;315;48.738;9.126;2023-05-07T15:23:38;16.00;99.90
666;DHT22;315;48.738;9.126;2023-05-07T15:26:04;16.00;99.90
666;DHT22;315;48.738;9.126;2023-05-07T15:28:30;16.00;99.90
666;DHT22;315;48.738;9.126;2023-05-07T15:30:56;16.10;99.90
666;DHT22;315;48.738;9.126;2023-05-07T15:33:22;16.40;99.90
666;DHT22;315;48.738;9.126;2023-05-07T15:35:48;16.60;99.90
666;DHT22;315;48.738;9.126;2023-05-07T15:38:14;16.70;99.90
666;DHT22;315;48.738;9.126;2023-05-07T15:40:39;16.80;99.90
666;DHT22;315;48.738;9.126;2023-05-07T15:43:08;16.90;99.90
666;DHT22;315;48.738;9.126;2023-05-07T15:45:42;17.10;99.90
666;DHT22;315;48.738;9.126;2023-05-07T15:48:09;17.10;99.90
666;DHT22;315;48.738;9.126;2023-05-07T15:50:35;17.10;99.90
666;DHT22;315;48.738;9.126;2023-05-07T15:53:01;17.00;99.90
666;DHT22;315;48.738;9.126;2023-05-07T15:55:27;16.90;99.90
666;DHT22;315;48.738;9.126;2023-05-07T15:57:52;17.10;99.90
666;DHT22;315;48.738;9.126;2023-05-07T16:00:19;17.10;99.90
666;DHT22;315;48.738;9.126;2023-05-07T16:02:45;17.10;99.90
666;DHT22;315;48.738;9.126;2023-05-07T16:05:10;17.20;99.90
666;DHT22;315;48.738;9.126;2023-05-07T16:07:39;17.20;99.90
666;DHT22;315;48.738;9.126;2023-05-07T16:10:06;17.20;99.90
666;DHT22;315;48.738;9.126;2023-05-07T16:12:32;17.20;99.90
666;DHT22;315;48.738;9.126;2023-05-07T16:14:58;17.10;99.90
666;DHT22;315;48.738;9.126;2023-05-07T16:17:23;17.00;99.90
666;DHT22;315;48.738;9.126;2023-05-07T16:19:50;17.00;99.90
666;DHT22;315;48.738;9.126;2023-05-07T16:22:16;16.90;99.90
666;DHT22;315;48.738;9.126;2023-05-07T16:24:41;16.80;99.90
666;DHT22;315;48.738;9.126;2023-05-07T16:27:07;17.00;99.90
666;DHT22;315;48.738;9.126;2023-05-07T16:29:32;17.10;99.90
666;DHT22;315;48.738;9.126;2023-05-07T16:31:58;17.20;99.90
666;DHT22;315;48.738;9.126;2023-05-07T16:34:23;17.20;99.90
666;DHT22;315;48.738;9.126;2023-05-07T16:36:49;17.20;99.90
666;DHT22;315;48.738;9.126;2023-05-07T16:39:14;17.20;99.90
666;DHT22;315;48.738;9.126;2023-05-07T16:41:40;17.30;99.90